createdAt,value
2022-11-08T00:02:01.904Z,2.29
2022-11-08T00:04:48.780Z,2.28
2022-11-08T00:07:48.264Z,2.21
2022-11-08T00:10:42.009Z,2.21
2022-11-08T00:13:41.074Z,2.21
2022-11-08T00:16:24.983Z,2.17
2022-11-08T00:19:07.959Z,2.14
2022-11-08T00:21:51.045Z,2.11
2022-11-08T00:24:47.985Z,2.09
2022-11-08T00:27:27.229Z,2.03
2022-11-08T00:30:02.399Z,2.01
2022-11-08T00:32:42.919Z,2.03
2022-11-08T00:35:26.509Z,2.13
2022-11-08T00:38:15.485Z,2.03
2022-11-08T00:41:04.210Z,1.98
2022-11-08T00:43:44.923Z,1.93
2022-11-08T00:46:29.764Z,1.91
2022-11-08T00:49:19.989Z,1.88
2022-11-08T00:52:10.502Z,1.85
2022-11-08T00:54:50.985Z,1.87
2022-11-08T00:57:58.349Z,1.83
2022-11-08T01:00:57.089Z,1.78
2022-11-08T01:03:37.512Z,1.81
2022-11-08T01:06:23.089Z,1.75
2022-11-08T01:09:09.294Z,1.77
2022-11-08T01:11:54.027Z,1.77
2022-11-08T01:14:43.934Z,1.86
2022-11-08T01:17:32.900Z,1.82
2022-11-08T01:20:14.954Z,1.81
2022-11-08T01:22:53.063Z,1.72
2022-11-08T01:25:38.703Z,1.78
2022-11-08T01:28:22.977Z,1.79
2022-11-08T01:31:09.680Z,1.80
2022-11-08T01:33:52.875Z,1.76
2022-11-08T01:36:31.954Z,1.71
2022-11-08T01:39:16.377Z,1.69
2022-11-08T01:42:03.014Z,1.65
2022-11-08T01:45:08.581Z,1.72
2022-11-08T01:47:45.485Z,1.71
2022-11-08T01:50:31.436Z,1.67
2022-11-08T01:53:07.075Z,1.71
2022-11-08T01:55:48.202Z,1.71
2022-11-08T01:58:37.984Z,1.69
2022-11-08T02:01:19.057Z,1.73
2022-11-08T02:04:00.938Z,1.78
2022-11-08T02:06:49.821Z,1.82
2022-11-08T02:09:31.110Z,1.90
2022-11-08T02:12:06.034Z,1.99
2022-11-08T02:14:43.557Z,2.06
2022-11-08T02:17:34.465Z,2.23
2022-11-08T02:20:14.653Z,2.22
2022-11-08T02:23:28.696Z,2.18
2022-11-08T02:26:12.917Z,2.26
2022-11-08T02:28:52.242Z,2.27
2022-11-08T02:31:35.540Z,2.32
2022-11-08T02:34:26.893Z,2.38
2022-11-08T02:37:08.444Z,2.41
2022-11-08T02:39:49.818Z,2.49
2022-11-08T02:42:32.752Z,2.54
2022-11-08T02:45:07.978Z,2.54
2022-11-08T02:47:54.541Z,2.56
2022-11-08T02:50:35.053Z,2.60
2022-11-08T02:53:11.224Z,2.56
2022-11-08T02:56:05.593Z,2.56
2022-11-08T02:58:51.581Z,2.56
2022-11-08T03:01:40.467Z,2.59
2022-11-08T03:04:25.449Z,2.61
2022-11-08T03:07:13.755Z,2.51
2022-11-08T03:09:54.302Z,2.47
2022-11-08T03:12:41.258Z,2.47
2022-11-08T03:15:34.755Z,2.44
2022-11-08T03:18:23.998Z,2.43
2022-11-08T03:21:09.649Z,2.43
2022-11-08T03:23:58.063Z,2.44
2022-11-08T03:26:47.836Z,2.35
2022-11-08T03:29:34.963Z,2.38
2022-11-08T03:32:25.680Z,2.38
2022-11-08T03:35:09.841Z,2.41
2022-11-08T03:38:04.736Z,2.38
2022-11-08T03:40:53.869Z,2.31
2022-11-08T03:43:41.310Z,2.32
2022-11-08T03:46:25.389Z,2.33
2022-11-08T03:49:03.193Z,2.33
2022-11-08T03:51:50.254Z,2.44
2022-11-08T03:54:37.888Z,2.49
2022-11-08T03:57:17.106Z,2.52
2022-11-08T04:00:07.014Z,2.50
2022-11-08T04:03:03.160Z,2.53
2022-11-08T04:05:54.029Z,2.58
2022-11-08T04:08:34.783Z,2.59
2022-11-08T04:11:42.706Z,2.67
2022-11-08T04:14:44.601Z,2.67
2022-11-08T04:17:46.646Z,2.67
2022-11-08T04:20:48.523Z,2.67
2022-11-08T04:23:29.944Z,2.66
2022-11-08T04:26:14.969Z,2.79
2022-11-08T04:28:55.977Z,2.90
2022-11-08T04:31:44.105Z,2.93
2022-11-08T04:34:27.005Z,2.81
2022-11-08T04:37:17.035Z,2.80
2022-11-08T04:40:05.080Z,2.87
2022-11-08T04:42:45.008Z,2.91
2022-11-08T04:45:31.225Z,3.02
2022-11-08T04:48:17.957Z,2.94
2022-11-08T04:50:58.770Z,2.89
2022-11-08T04:53:47.016Z,2.83
2022-11-08T04:56:32.710Z,2.92
2022-11-08T04:59:16.815Z,2.88
2022-11-08T05:02:11.020Z,2.85
2022-11-08T05:04:54.890Z,2.85
2022-11-08T05:07:40.949Z,2.78
2022-11-08T05:10:23.990Z,2.76
2022-11-08T05:13:08.940Z,2.91
2022-11-08T05:15:49.885Z,2.94
2022-11-08T05:18:37.932Z,2.87
2022-11-08T05:21:34.663Z,2.88
2022-11-08T05:24:27.006Z,2.82
2022-11-08T05:27:12.722Z,2.87
2022-11-08T05:30:08.107Z,2.91
2022-11-08T05:32:54.572Z,2.97
2022-11-08T05:35:49.498Z,3.00
2022-11-08T05:38:38.843Z,3.03
2022-11-08T05:41:33.147Z,3.07
2022-11-08T05:44:17.822Z,3.13
2022-11-08T05:47:09.331Z,3.12
2022-11-08T05:49:54.966Z,3.22
2022-11-08T05:52:38.301Z,3.30
2022-11-08T05:55:21.530Z,3.41
2022-11-08T05:58:05.047Z,3.38
2022-11-08T06:00:57.087Z,3.46
2022-11-08T06:03:45.445Z,3.50
2022-11-08T06:06:34.408Z,3.56
2022-11-08T06:09:17.823Z,3.59
2022-11-08T06:12:10.150Z,3.67
2022-11-08T06:14:59.930Z,3.81
2022-11-08T06:17:57.748Z,3.84
2022-11-08T06:20:51.389Z,3.97
2022-11-08T06:23:40.924Z,4.10
2022-11-08T06:26:24.915Z,4.13
2022-11-08T06:29:09.145Z,4.19
2022-11-08T06:31:55.823Z,4.19
2022-11-08T06:34:57.475Z,4.32
2022-11-08T06:37:42.904Z,4.39
2022-11-08T06:40:24.438Z,4.51
2022-11-08T06:43:14.968Z,4.46
2022-11-08T06:45:58.796Z,4.50
2022-11-08T06:48:42.546Z,4.51
2022-11-08T06:51:31.477Z,4.56
2022-11-08T06:54:28.062Z,4.63
2022-11-08T06:57:17.751Z,4.75
2022-11-08T07:00:15.199Z,4.87
2022-11-08T07:03:04.132Z,4.92
2022-11-08T07:05:50.808Z,5.13
2022-11-08T07:08:41.024Z,5.20
2022-11-08T07:11:23.852Z,5.25
2022-11-08T07:14:04.014Z,5.31
2022-11-08T07:16:47.938Z,5.40
2022-11-08T07:19:47.685Z,5.56
2022-11-08T07:22:34.369Z,5.60
2022-11-08T07:25:22.225Z,5.62
2022-11-08T07:28:09.600Z,5.73
2022-11-08T07:30:59.895Z,5.79
2022-11-08T07:33:45.938Z,5.83
2022-11-08T07:36:41.923Z,5.91
2022-11-08T07:39:22.945Z,6.01
2022-11-08T07:42:11.495Z,6.06
2022-11-08T07:45:02.914Z,6.08
2022-11-08T07:47:46.943Z,6.18
2022-11-08T07:50:44.448Z,6.23
2022-11-08T07:53:30.942Z,6.28
2022-11-08T07:56:12.134Z,6.35
2022-11-08T07:59:02.163Z,6.33
2022-11-08T08:01:48.043Z,6.38
2022-11-08T08:04:34.424Z,6.45
2022-11-08T08:07:26.125Z,6.61
2022-11-08T08:10:10.908Z,6.63
2022-11-08T08:12:46.794Z,6.62
2022-11-08T08:15:29.831Z,6.90
2022-11-08T08:18:06.950Z,7.00
2022-11-08T08:20:50.014Z,7.09
2022-11-08T08:23:51.634Z,7.06
2022-11-08T08:26:36.769Z,7.30
2022-11-08T08:29:21.609Z,7.44
2022-11-08T08:35:15.790Z,7.44
2022-11-08T08:38:11.231Z,7.43
2022-11-08T08:40:56.730Z,7.47
2022-11-08T08:43:45.739Z,7.47
2022-11-08T08:46:37.283Z,7.68
2022-11-08T08:49:29.005Z,7.48
2022-11-08T08:55:06.111Z,7.58
2022-11-08T08:57:48.683Z,7.58
2022-11-08T09:03:32.003Z,7.65
2022-11-08T09:06:15.935Z,7.65
2022-11-08T09:08:58.100Z,7.59
2022-11-08T09:11:42.003Z,7.83
2022-11-08T09:14:28.740Z,7.93
2022-11-08T09:17:09.210Z,8.15
2022-11-08T09:20:08.523Z,8.22
2022-11-08T09:22:51.043Z,8.29
2022-11-08T09:25:44.002Z,8.37
2022-11-08T09:28:23.319Z,8.17
2022-11-08T09:31:07.475Z,8.37
2022-11-08T09:33:58.742Z,8.26
2022-11-08T09:36:51.401Z,8.23
2022-11-08T09:39:44.584Z,8.10
2022-11-08T09:42:57.284Z,8.25
2022-11-08T09:45:44.915Z,8.27
2022-11-08T09:48:51.954Z,8.45
2022-11-08T09:51:37.253Z,8.34
2022-11-08T09:54:46.125Z,8.40
2022-11-08T09:57:35.804Z,8.57
2022-11-08T10:00:17.941Z,8.52
2022-11-08T10:03:04.682Z,8.64
2022-11-08T10:05:56.347Z,8.68
2022-11-08T10:08:55.745Z,8.71
2022-11-08T10:12:18.291Z,9.00
2022-11-08T10:15:28.032Z,9.16
2022-11-08T10:18:44.597Z,9.46
2022-11-08T10:22:00.483Z,9.08
2022-11-08T10:24:49.247Z,9.39
2022-11-08T10:27:45.759Z,9.59
2022-11-08T10:30:28.130Z,9.61
2022-11-08T10:33:40.363Z,9.73
2022-11-08T10:36:26.419Z,9.83
2022-11-08T10:39:09.994Z,9.72
2022-11-08T10:42:10.016Z,9.81
2022-11-08T10:44:48.552Z,9.54
2022-11-08T10:47:31.883Z,9.60
2022-11-08T10:50:34.026Z,9.53
2022-11-08T10:53:22.639Z,9.60
2022-11-08T10:56:35.521Z,9.74
2022-11-08T10:59:35.709Z,9.93
2022-11-08T11:02:38.944Z,9.95
2022-11-08T11:06:04.034Z,9.98
2022-11-08T11:08:58.337Z,9.92
2022-11-08T11:11:45.914Z,10.22
2022-11-08T11:14:37.764Z,10.54
2022-11-08T11:17:39.091Z,10.71
2022-11-08T11:20:33.901Z,10.75
2022-11-08T11:23:20.063Z,10.72
2022-11-08T11:25:57.742Z,10.64
2022-11-08T11:28:44.983Z,10.25
2022-11-08T11:31:27.938Z,10.59
2022-11-08T11:34:23.677Z,10.73
2022-11-08T11:37:16.285Z,11.06
2022-11-08T11:40:17.812Z,11.21
2022-11-08T11:43:13.788Z,11.07
2022-11-08T11:45:55.874Z,11.15
2022-11-08T11:48:49.853Z,10.94
2022-11-08T11:51:43.424Z,10.85
2022-11-08T11:54:29.004Z,11.20
2022-11-08T11:57:23.214Z,11.11
2022-11-08T12:00:20.467Z,11.15
2022-11-08T12:03:27.404Z,11.26
2022-11-08T12:07:03.739Z,11.26
2022-11-08T12:10:22.754Z,10.96
2022-11-08T12:13:11.961Z,10.89
2022-11-08T12:16:47.919Z,10.39
2022-11-08T12:19:37.217Z,10.15
2022-11-08T12:22:57.906Z,10.08
2022-11-08T12:26:20.003Z,10.15
2022-11-08T12:29:22.629Z,9.72
2022-11-08T12:32:46.889Z,9.85
2022-11-08T12:36:10.774Z,9.48
2022-11-08T12:39:18.049Z,9.57
2022-11-08T12:42:32.454Z,9.52
2022-11-08T12:45:17.983Z,9.36
2022-11-08T12:48:11.664Z,9.48
2022-11-08T12:51:21.869Z,9.59
2022-11-08T12:54:29.704Z,9.54
2022-11-08T12:57:16.471Z,9.23
2022-11-08T12:59:56.568Z,9.52
2022-11-08T13:02:45.642Z,9.64
2022-11-08T13:05:54.104Z,9.44
2022-11-08T13:08:50.886Z,8.90
2022-11-08T13:11:55.058Z,8.99
2022-11-08T13:14:41.317Z,8.85
2022-11-08T13:17:32.974Z,8.76
2022-11-08T13:20:48.392Z,8.75
2022-11-08T13:23:36.016Z,8.70
2022-11-08T13:26:50.174Z,8.68
2022-11-08T13:29:36.734Z,8.41
2022-11-08T13:32:52.714Z,8.11
2022-11-08T13:35:42.558Z,8.32
2022-11-08T13:39:05.494Z,8.45
2022-11-08T13:42:21.126Z,8.44
2022-11-08T13:45:25.807Z,8.54
2022-11-08T13:48:26.319Z,8.45
2022-11-08T13:51:27.166Z,8.44
2022-11-08T13:54:20.076Z,8.69
2022-11-08T13:57:06.599Z,8.64
2022-11-08T14:00:05.928Z,8.74
2022-11-08T14:02:58.806Z,8.72
2022-11-08T14:05:51.934Z,8.69
2022-11-08T14:08:50.805Z,8.44
2022-11-08T14:11:52.335Z,8.44
2022-11-08T14:14:53.596Z,8.37
2022-11-08T14:18:05.154Z,8.30
2022-11-08T14:20:54.839Z,8.23
2022-11-08T14:23:42.884Z,8.27
2022-11-08T14:26:34.758Z,8.17
2022-11-08T14:29:31.487Z,8.08
2022-11-08T14:32:28.954Z,7.90
2022-11-08T14:35:27.302Z,7.93
2022-11-08T14:38:10.650Z,7.86
2022-11-08T14:41:38.017Z,7.71
2022-11-08T14:44:26.662Z,7.54
2022-11-08T14:47:42.207Z,7.50
2022-11-08T14:50:35.028Z,7.44
2022-11-08T14:53:35.635Z,7.47
2022-11-08T14:56:44.266Z,7.42
2022-11-08T14:59:30.430Z,7.43
2022-11-08T15:02:28.764Z,7.38
2022-11-08T15:05:36.338Z,7.37
2022-11-08T15:08:38.305Z,7.29
2022-11-08T15:11:52.488Z,7.17
2022-11-08T15:14:40.867Z,7.16
2022-11-08T15:17:46.227Z,7.21
2022-11-08T15:20:33.063Z,7.20
2022-11-08T15:23:28.261Z,7.20
2022-11-08T15:26:37.957Z,7.14
2022-11-08T15:29:36.544Z,7.06
2022-11-08T15:32:23.276Z,7.04
2022-11-08T15:35:05.100Z,7.04
2022-11-08T15:37:48.544Z,7.12
2022-11-08T15:40:39.978Z,7.15
2022-11-08T15:43:50.899Z,7.08
2022-11-08T15:46:54.276Z,7.14
2022-11-08T15:49:48.966Z,6.95
2022-11-08T15:52:35.317Z,6.94
2022-11-08T15:55:21.602Z,7.03
2022-11-08T15:58:07.302Z,7.06
2022-11-08T16:00:58.079Z,7.02
2022-11-08T16:03:54.749Z,7.07
2022-11-08T16:06:46.997Z,7.04
2022-11-08T16:10:01.181Z,7.07
2022-11-08T16:12:46.321Z,7.17
2022-11-08T16:15:40.629Z,7.19
2022-11-08T16:18:38.225Z,7.16
2022-11-08T16:21:28.885Z,7.12
2022-11-08T16:24:29.699Z,7.22
2022-11-08T16:27:20.053Z,7.16
2022-11-08T16:30:23.872Z,7.22
2022-11-08T16:33:36.137Z,7.28
2022-11-08T16:36:29.889Z,7.33
2022-11-08T16:39:26.335Z,7.34
2022-11-08T16:42:13.232Z,7.30
2022-11-08T16:45:01.883Z,7.32
2022-11-08T16:47:50.008Z,7.30
2022-11-08T16:50:45.194Z,7.33
2022-11-08T16:53:32.382Z,7.35
2022-11-08T16:56:33.891Z,7.36
2022-11-08T16:59:21.036Z,7.29
2022-11-08T17:02:11.000Z,7.36
2022-11-08T17:04:59.367Z,7.44
2022-11-08T17:07:45.508Z,7.51
2022-11-08T17:13:40.111Z,7.51
2022-11-08T17:16:22.944Z,7.53
2022-11-08T17:19:12.311Z,7.55
2022-11-08T17:22:03.580Z,7.55
2022-11-08T17:24:52.986Z,7.60
2022-11-08T17:27:36.060Z,7.68
2022-11-08T17:30:27.344Z,7.67
2022-11-08T17:33:21.229Z,7.66
2022-11-08T17:36:09.070Z,7.69
2022-11-08T17:38:59.903Z,7.65
2022-11-08T17:41:46.916Z,7.74
2022-11-08T17:44:33.300Z,7.78
2022-11-08T17:47:18.961Z,7.81
2022-11-08T17:49:58.029Z,7.78
2022-11-08T17:52:50.760Z,7.81
2022-11-08T17:55:35.917Z,7.70
2022-11-08T17:58:22.260Z,7.61
2022-11-08T18:01:16.646Z,7.63
2022-11-08T18:04:06.505Z,7.60
2022-11-08T18:06:47.022Z,7.65
2022-11-08T18:09:32.549Z,7.63
2022-11-08T18:12:26.713Z,7.60
2022-11-08T18:15:16.762Z,7.59
2022-11-08T18:18:06.934Z,7.60
2022-11-08T18:21:02.093Z,7.65
2022-11-08T18:23:47.964Z,7.62
2022-11-08T18:26:43.272Z,7.62
2022-11-08T18:29:30.780Z,7.58
2022-11-08T18:32:11.929Z,7.63
2022-11-08T18:34:55.084Z,7.63
2022-11-08T18:37:46.068Z,7.68
2022-11-08T18:40:26.801Z,7.59
2022-11-08T18:43:12.786Z,7.64
2022-11-08T18:46:12.570Z,7.60
2022-11-08T18:48:56.643Z,7.68
2022-11-08T18:51:54.880Z,7.63
2022-11-08T18:54:38.926Z,7.64
2022-11-08T18:57:30.663Z,7.55
2022-11-08T19:00:13.743Z,7.59
2022-11-08T19:03:07.067Z,7.57
2022-11-08T19:09:00.604Z,7.60
2022-11-08T19:11:59.467Z,7.49
2022-11-08T19:14:58.664Z,7.61
2022-11-08T19:18:06.101Z,7.58
2022-11-08T19:21:02.941Z,7.49
2022-11-08T19:23:49.464Z,7.59
2022-11-08T19:26:41.203Z,7.53
2022-11-08T19:29:32.507Z,7.61
2022-11-08T19:32:19.084Z,7.64
2022-11-08T19:35:04.798Z,7.61
2022-11-08T19:37:51.682Z,7.60
2022-11-08T19:40:36.210Z,7.60
2022-11-08T19:43:18.424Z,7.66
2022-11-08T19:46:06.214Z,7.63
2022-11-08T19:48:47.594Z,7.54
2022-11-08T19:51:32.336Z,7.65
2022-11-08T19:54:16.901Z,7.47
2022-11-08T19:57:04.598Z,7.50
2022-11-08T19:59:52.896Z,7.39
2022-11-08T20:02:39.225Z,7.50
2022-11-08T20:05:28.973Z,7.58
2022-11-08T20:08:14.946Z,7.46
2022-11-08T20:11:18.777Z,7.55
2022-11-08T20:14:10.766Z,7.56
2022-11-08T20:17:18.298Z,7.69
2022-11-08T20:20:10.135Z,7.60
2022-11-08T20:23:07.769Z,7.63
2022-11-08T20:25:54.779Z,7.58
2022-11-08T20:28:41.742Z,7.60
2022-11-08T20:31:38.936Z,7.57
2022-11-08T20:34:29.824Z,7.48
2022-11-08T20:37:24.341Z,7.52
2022-11-08T20:40:10.493Z,7.57
2022-11-08T20:42:59.027Z,7.53
2022-11-08T20:45:50.873Z,7.51
2022-11-08T20:48:28.842Z,7.43
2022-11-08T20:51:17.739Z,7.45
2022-11-08T20:54:07.156Z,7.40
2022-11-08T20:57:07.401Z,7.48
2022-11-08T20:59:47.686Z,7.46
2022-11-08T21:02:44.909Z,7.52
2022-11-08T21:05:34.567Z,7.56
2022-11-08T21:11:32.683Z,7.60
2022-11-08T21:14:24.186Z,7.59
2022-11-08T21:17:25.121Z,7.66
2022-11-08T21:20:05.818Z,7.67
2022-11-08T21:22:45.105Z,7.73
2022-11-08T21:25:26.929Z,7.68
2022-11-08T21:28:10.512Z,7.76
2022-11-08T21:30:52.468Z,7.66
2022-11-08T21:33:31.091Z,7.74
2022-11-08T21:36:12.875Z,7.80
2022-11-08T21:38:59.747Z,7.74
2022-11-08T21:41:44.898Z,7.76
2022-11-08T21:44:32.921Z,7.78
2022-11-08T21:47:13.564Z,7.77
2022-11-08T21:49:54.415Z,7.85
2022-11-08T21:52:40.297Z,7.81
2022-11-08T21:55:25.776Z,7.82
2022-11-08T21:58:14.638Z,7.79
2022-11-08T22:00:59.958Z,7.78
2022-11-08T22:03:53.238Z,7.76
2022-11-08T22:06:47.684Z,7.69
2022-11-08T22:09:40.128Z,7.71
2022-11-08T22:12:23.920Z,7.76
2022-11-08T22:15:04.873Z,7.70
2022-11-08T22:21:28.811Z,7.77
2022-11-08T22:24:05.914Z,7.73
2022-11-08T22:26:48.943Z,7.73
2022-11-08T22:29:42.907Z,7.80
2022-11-08T22:32:26.167Z,7.82
2022-11-08T22:35:15.111Z,7.73
2022-11-08T22:37:58.329Z,7.76
2022-11-08T22:40:46.513Z,7.90
2022-11-08T22:43:38.145Z,7.77
2022-11-08T22:46:21.028Z,7.75
2022-11-08T22:49:11.248Z,7.77
2022-11-08T22:51:55.070Z,7.77
2022-11-08T22:54:38.922Z,7.80
2022-11-08T22:57:30.787Z,7.67
2022-11-08T23:00:19.878Z,7.71
2022-11-08T23:02:59.950Z,7.64
2022-11-08T23:05:45.181Z,7.72
2022-11-08T23:08:25.924Z,7.72
2022-11-08T23:11:31.272Z,7.72
2022-11-08T23:14:37.186Z,7.75
2022-11-08T23:17:18.175Z,7.77
2022-11-08T23:20:15.763Z,7.67
2022-11-08T23:23:18.285Z,7.67
2022-11-08T23:26:04.547Z,7.72
2022-11-08T23:29:02.903Z,7.70
2022-11-08T23:31:48.137Z,7.59
2022-11-08T23:34:29.926Z,7.66
2022-11-08T23:37:19.951Z,7.59
2022-11-08T23:40:23.307Z,7.53
2022-11-08T23:43:33.021Z,7.50
2022-11-08T23:46:28.743Z,7.57
2022-11-08T23:49:15.800Z,7.68
2022-11-08T23:52:08.860Z,7.58
2022-11-08T23:55:03.994Z,7.53
2022-11-08T23:57:47.903Z,7.59
